This is the latest recevied weather packets stored in our database for station/object LRSV. If no packets are shown the sender has not sent any weather packets the latest 10 day(s).
| Time | Temp. | Humidity | Pressure | Rain* | Wind** | Luminosity | Snow |
|---|---|---|---|---|---|---|---|
| 1777759400 | 3.89° C | 75% | 1022 hPa | - | - | - | - |
| 1777758500 | 5° C | 66% | 1023 hPa | - | - | - | - |
| 1777757601 | 5° C | 66% | 1023 hPa | - | - | - | - |
| 1777756700 | 5° C | 66% | 1023 hPa | - | - | - | - |
| 1777755800 | 5° C | 66% | 1023 hPa | - | - | - | - |
| 1777754900 | 5° C | 66% | 1023 hPa | - | - | - | - |
| 1777754000 | 5° C | 66% | 1023 hPa | - | - | - | - |
| 1777753100 | 7.22° C | 57% | 1023 hPa | - | - | - | - |
| 1777752200 | 7.22° C | 57% | 1023 hPa | - | - | - | - |
| 1777751300 | 7.22° C | 57% | 1023 hPa | - | - | - | - |
| 1777750401 | 7.22° C | 57% | 1023 hPa | - | - | - | - |
| 1777749500 | 7.78° C | 53% | 1023 hPa | - | - | - | - |
| 1777748600 | 7.78° C | 53% | 1023 hPa | - | - | - | - |
| 1777747700 | 7.78° C | 53% | 1022 hPa | - | - | - | - |
| 1777746800 | 7.78° C | 53% | 1022 hPa | - | - | - | - |
| 1777745901 | 8.89° C | 50% | 1022 hPa | - | - | - | - |
| 1777745000 | 8.89° C | 50% | 1022 hPa | - | - | - | - |
| 1777744100 | 8.89° C | 54% | 1022 hPa | - | - | - | - |
| 1777743200 | 8.89° C | 54% | 1022 hPa | - | - | - | - |
| 1777742300 | 8.89° C | 58% | 1022 hPa | - | - | - | - |
| 1777741400 | 8.89° C | 58% | 1022 hPa | - | - | - | - |
| 1777740497 | 11.11° C | 47% | 1022 hPa | - | - | - | - |
| 1777739600 | 11.11° C | 47% | 1022 hPa | - | - | - | - |
| 1777738700 | 11.11° C | 50% | 1022 hPa | - | - | - | - |
| 1777737801 | 11.11° C | 50% | 1022 hPa | - | - | - | - |
* Rain since midnight (hover to see other rain measurements)
** Current wind speed in m/s (hover to see current wind gust speed)